Time,TemperatureF,DewpointF,PressureIn,WindDirection,WindDirectionDegrees,WindSpeedMPH,WindSpeedGustMPH,Humidity,HourlyPrecipIn,Conditions,Clouds,dailyrainin,SoftwareType,DateUTC
2013-07-31 00:12:00,81.0,55.0,29.38,SSW,205,2.0,-999.0,41,0.00,,,0.00,,2013-07-31 07:12:00,
2013-07-31 00:22:00,81.0,55.0,29.38,SSW,205,2.0,-999.0,41,0.00,,,0.00,,2013-07-31 07:22:00,
2013-07-31 00:32:00,81.0,55.0,29.38,SSW,205,2.0,-999.0,41,0.00,,,0.00,,2013-07-31 07:32:00,
2013-07-31 00:43:00,81.0,55.0,29.38,SSW,205,2.0,-999.0,41,0.00,,,0.00,,2013-07-31 07:43:00,
2013-07-31 01:12:00,77.0,56.0,29.38,WSW,256,2.0,-999.0,48,0.00,,,-99.99,,2013-07-31 08:12:00,
2013-07-31 01:22:00,77.0,56.0,29.38,WSW,256,2.0,-999.0,48,0.00,,,-99.99,,2013-07-31 08:22:00,
2013-07-31 01:32:00,77.0,56.0,29.38,WSW,256,2.0,-999.0,48,0.00,,,-99.99,,2013-07-31 08:32:00,
2013-07-31 01:42:00,77.0,56.0,29.38,WSW,256,2.0,-999.0,48,0.00,,,-99.99,,2013-07-31 08:42:00,
2013-07-31 02:22:00,75.0,54.0,29.37,NNW,335,1.0,-999.0,49,0.00,,,0.00,,2013-07-31 09:22:00,
2013-07-31 02:32:00,75.0,54.0,29.37,NNW,335,1.0,-999.0,49,0.00,,,0.00,,2013-07-31 09:32:00,
2013-07-31 02:43:00,75.0,54.0,29.37,NNW,335,1.0,-999.0,49,0.00,,,0.00,,2013-07-31 09:43:00,
2013-07-31 03:12:00,74.0,53.0,29.38,North,2,2.0,-999.0,49,0.00,,,0.00,,2013-07-31 10:12:00,
2013-07-31 03:22:00,74.0,53.0,29.38,North,2,2.0,-999.0,49,0.00,,,0.00,,2013-07-31 10:22:00,
2013-07-31 03:32:00,74.0,53.0,29.38,North,2,2.0,-999.0,49,0.00,,,0.00,,2013-07-31 10:32:00,
2013-07-31 03:44:00,74.0,53.0,29.38,North,2,2.0,-999.0,49,0.00,,,0.00,,2013-07-31 10:44:00,
2013-07-31 04:12:00,71.0,57.0,29.38,WNW,302,1.0,-999.0,62,0.00,,,0.00,,2013-07-31 11:12:00,
2013-07-31 04:22:00,71.0,57.0,29.38,WNW,302,1.0,-999.0,62,0.00,,,0.00,,2013-07-31 11:22:00,
2013-07-31 04:33:00,71.0,57.0,29.38,WNW,302,1.0,-999.0,62,0.00,,,0.00,,2013-07-31 11:33:00,
2013-07-31 04:43:00,71.0,57.0,29.38,WNW,302,1.0,-999.0,62,0.00,,,0.00,,2013-07-31 11:43:00,
2013-07-31 05:22:00,70.0,56.0,29.39,North,350,1.0,-999.0,62,-99.99,,,-99.99,,2013-07-31 12:22:00,
2013-07-31 05:32:00,70.0,56.0,29.39,North,350,1.0,-999.0,62,-99.99,,,-99.99,,2013-07-31 12:32:00,
2013-07-31 05:43:00,70.0,56.0,29.39,North,350,1.0,-999.0,62,-99.99,,,-99.99,,2013-07-31 12:43:00,
2013-07-31 07:22:00,71.0,53.0,29.41,WSW,247,3.0,-999.0,52,-99.99,,,0.00,,2013-07-31 14:22:00,
2013-07-31 07:34:00,71.0,53.0,29.41,WSW,247,3.0,-999.0,52,-99.99,,,0.00,,2013-07-31 14:34:00,
2013-07-31 07:43:00,71.0,53.0,29.41,WSW,247,3.0,-999.0,52,-99.99,,,0.00,,2013-07-31 14:43:00,
2013-07-31 08:12:00,74.0,53.0,29.41,North,349,0.0,-999.0,47,0.00,,,0.00,,2013-07-31 15:12:00,
2013-07-31 08:22:00,74.0,53.0,29.41,North,349,0.0,-999.0,47,0.00,,,0.00,,2013-07-31 15:22:00,
2013-07-31 08:33:00,74.0,53.0,29.41,North,349,0.0,-999.0,47,0.00,,,0.00,,2013-07-31 15:33:00,
2013-07-31 08:43:00,74.0,53.0,29.41,North,349,0.0,-999.0,47,0.00,,,-99.99,,2013-07-31 15:43:00,
2013-07-31 09:12:00,76.0,56.0,29.42,South,189,6.0,-999.0,50,0.00,,,0.00,,2013-07-31 16:12:00,
2013-07-31 09:22:00,76.0,56.0,29.42,South,189,6.0,-999.0,50,0.00,,,0.00,,2013-07-31 16:22:00,
2013-07-31 09:33:00,76.0,56.0,29.42,South,189,6.0,-999.0,50,0.00,,,0.00,,2013-07-31 16:33:00,
2013-07-31 09:43:00,76.0,56.0,29.42,South,189,6.0,-999.0,50,0.00,,,0.00,,2013-07-31 16:43:00,
2013-07-31 10:12:00,80.0,54.0,29.41,SSW,199,5.0,-999.0,41,0.00,,,0.00,,2013-07-31 17:12:00,
2013-07-31 10:22:00,80.0,54.0,29.41,SSW,199,5.0,-999.0,41,0.00,,,0.00,,2013-07-31 17:22:00,
2013-07-31 10:33:00,80.0,54.0,29.41,SSW,199,5.0,-999.0,41,0.00,,,0.00,,2013-07-31 17:33:00,
2013-07-31 10:43:00,80.0,54.0,29.41,SSW,199,5.0,-999.0,41,0.00,,,0.00,,2013-07-31 17:43:00,
2013-07-31 11:12:00,85.0,53.0,29.41,WNW,298,2.0,-999.0,33,0.00,,,0.00,,2013-07-31 18:12:00,
2013-07-31 11:22:00,85.0,53.0,29.41,WNW,298,2.0,-999.0,33,0.00,,,0.00,,2013-07-31 18:22:00,
2013-07-31 11:43:00,85.0,53.0,29.41,WNW,298,2.0,-999.0,33,0.00,,,0.00,,2013-07-31 18:43:00,
2013-07-31 12:22:00,88.0,49.0,29.40,SSW,202,4.0,-999.0,27,0.01,,,0.00,,2013-07-31 19:22:00,
2013-07-31 12:32:00,88.0,49.0,29.40,SSW,202,4.0,-999.0,27,0.01,,,0.00,,2013-07-31 19:32:00,
2013-07-31 12:43:00,88.0,49.0,29.40,SSW,202,4.0,-999.0,27,0.01,,,0.00,,2013-07-31 19:43:00,
2013-07-31 13:12:00,91.0,49.0,29.38,SW,217,4.0,-999.0,24,0.00,,,0.00,,2013-07-31 20:12:00,
2013-07-31 13:22:00,91.0,49.0,29.38,SW,217,4.0,-999.0,24,0.00,,,0.00,,2013-07-31 20:22:00,
2013-07-31 13:32:00,91.0,49.0,29.38,SW,217,4.0,-999.0,24,0.00,,,0.00,,2013-07-31 20:32:00,
2013-07-31 13:42:00,91.0,49.0,29.38,SW,217,4.0,-999.0,24,0.00,,,0.00,,2013-07-31 20:42:00,
2013-07-31 14:22:00,94.0,48.0,29.35,West,273,5.0,-999.0,21,0.00,,,0.00,,2013-07-31 21:22:00,
2013-07-31 14:32:00,94.0,48.0,29.35,West,273,5.0,-999.0,21,0.00,,,0.00,,2013-07-31 21:32:00,
2013-07-31 14:42:00,94.0,48.0,29.35,West,273,5.0,-999.0,21,0.00,,,0.00,,2013-07-31 21:42:00,
2013-07-31 16:22:00,97.0,45.0,29.31,West,277,6.0,-999.0,17,0.00,,,0.00,,2013-07-31 23:22:00,
2013-07-31 16:32:00,97.0,45.0,29.31,West,277,6.0,-999.0,17,0.00,,,0.00,,2013-07-31 23:32:00,
2013-07-31 16:42:00,97.0,45.0,29.31,West,277,6.0,-999.0,17,0.00,,,0.00,,2013-07-31 23:42:00,
2013-07-31 17:12:00,97.0,46.0,29.29,West,272,4.0,-999.0,18,0.00,,,0.00,,2013-08-01 00:12:00,
2013-07-31 17:22:00,97.0,46.0,29.29,West,272,4.0,-999.0,18,0.00,,,0.00,,2013-08-01 00:22:00,
2013-07-31 17:32:00,97.0,46.0,29.29,West,272,4.0,-999.0,18,0.00,,,0.00,,2013-08-01 00:32:00,
2013-07-31 17:43:00,97.0,46.0,29.29,West,272,4.0,-999.0,18,0.00,,,0.00,,2013-08-01 00:43:00,
2013-07-31 18:12:00,96.0,47.0,29.28,West,261,4.0,-999.0,19,0.00,,,-99.99,,2013-08-01 01:12:00,
2013-07-31 18:22:00,96.0,47.0,29.28,West,261,4.0,-999.0,19,0.00,,,-99.99,,2013-08-01 01:22:00,
2013-07-31 18:32:00,96.0,47.0,29.28,West,261,4.0,-999.0,19,0.00,,,-99.99,,2013-08-01 01:32:00,
2013-07-31 18:42:00,96.0,47.0,29.28,West,261,4.0,-999.0,19,0.00,,,-99.99,,2013-08-01 01:42:00,
2013-07-31 19:12:00,94.0,47.0,29.27,SW,229,4.0,-999.0,20,0.00,,,0.00,,2013-08-01 02:12:00,
2013-07-31 19:22:00,94.0,47.0,29.27,SW,229,4.0,-999.0,20,0.00,,,0.00,,2013-08-01 02:22:00,
2013-07-31 19:32:00,94.0,47.0,29.27,SW,229,4.0,-999.0,20,0.00,,,0.00,,2013-08-01 02:32:00,
2013-07-31 19:43:00,94.0,47.0,29.27,SW,229,4.0,-999.0,20,0.00,,,0.00,,2013-08-01 02:43:00,
2013-07-31 20:12:00,91.0,48.0,29.28,SSW,192,4.0,-999.0,23,0.00,,,0.00,,2013-08-01 03:12:00,
2013-07-31 20:22:00,91.0,48.0,29.28,SSW,192,4.0,-999.0,23,0.00,,,0.00,,2013-08-01 03:22:00,
2013-07-31 20:32:00,91.0,48.0,29.28,SSW,192,4.0,-999.0,23,0.00,,,0.00,,2013-08-01 03:32:00,
2013-07-31 20:43:00,91.0,48.0,29.28,SSW,192,4.0,-999.0,23,0.00,,,0.00,,2013-08-01 03:43:00,
2013-07-31 21:12:00,87.0,47.0,29.29,SW,218,6.0,-999.0,25,0.00,,,0.00,,2013-08-01 04:12:00,
2013-07-31 21:22:00,87.0,47.0,29.29,SW,218,6.0,-999.0,25,0.00,,,0.00,,2013-08-01 04:22:00,
2013-07-31 21:33:00,87.0,47.0,29.29,SW,218,6.0,-999.0,25,0.00,,,0.00,,2013-08-01 04:33:00,
2013-07-31 21:43:00,87.0,47.0,29.29,SW,218,6.0,-999.0,25,0.00,,,0.00,,2013-08-01 04:43:00,
2013-07-31 22:13:00,85.0,48.0,29.31,NNE,30,3.0,-999.0,28,0.00,,,0.00,,2013-08-01 05:13:00,
2013-07-31 22:22:00,85.0,48.0,29.31,NNE,30,3.0,-999.0,28,0.00,,,0.00,,2013-08-01 05:22:00,
2013-07-31 22:32:00,85.0,48.0,29.31,NNE,30,3.0,-999.0,28,0.00,,,0.00,,2013-08-01 05:32:00,
2013-07-31 22:43:00,85.0,48.0,29.31,NNE,30,3.0,-999.0,28,0.00,,,0.00,,2013-08-01 05:43:00,
2013-07-31 23:12:00,83.0,48.0,29.32,ENE,62,2.0,-999.0,30,0.00,,,0.00,,2013-08-01 06:12:00,
2013-07-31 23:22:00,83.0,48.0,29.32,ENE,62,2.0,-999.0,30,0.00,,,0.00,,2013-08-01 06:22:00,
2013-07-31 23:32:00,83.0,48.0,29.32,ENE,62,2.0,-999.0,30,0.00,,,0.00,,2013-08-01 06:32:00,
2013-07-31 23:42:00,83.0,48.0,29.32,ENE,62,2.0,-999.0,30,0.00,,,0.00,,2013-08-01 06:42:00,